sensor_id;sensor_type;location;lat;lon;timestamp;P1;durP1;ratioP1;P2;durP2;ratioP2
32186;SDS011;18686;53.084;8.872;2022-08-19T00:01:51;5.38;;;3.65;;
32186;SDS011;18686;53.084;8.872;2022-08-19T00:04:22;6.07;;;3.50;;
32186;SDS011;18686;53.084;8.872;2022-08-19T00:06:53;7.20;;;3.92;;
32186;SDS011;18686;53.084;8.872;2022-08-19T00:09:22;6.07;;;3.97;;
32186;SDS011;18686;53.084;8.872;2022-08-19T00:11:51;7.05;;;4.00;;
32186;SDS011;18686;53.084;8.872;2022-08-19T00:14:23;5.30;;;3.33;;
32186;SDS011;18686;53.084;8.872;2022-08-19T00:16:52;4.78;;;3.28;;
32186;SDS011;18686;53.084;8.872;2022-08-19T00:19:21;5.07;;;3.45;;
32186;SDS011;18686;53.084;8.872;2022-08-19T00:21:51;4.45;;;2.95;;
32186;SDS011;18686;53.084;8.872;2022-08-19T00:24:22;5.97;;;3.60;;
32186;SDS011;18686;53.084;8.872;2022-08-19T00:26:50;6.88;;;3.65;;
32186;SDS011;18686;53.084;8.872;2022-08-19T00:29:20;6.20;;;3.50;;
32186;SDS011;18686;53.084;8.872;2022-08-19T00:31:49;6.00;;;3.20;;
32186;SDS011;18686;53.084;8.872;2022-08-19T00:34:38;5.45;;;3.70;;
32186;SDS011;18686;53.084;8.872;2022-08-19T00:37:08;6.80;;;3.70;;
32186;SDS011;18686;53.084;8.872;2022-08-19T00:39:36;5.30;;;3.13;;
32186;SDS011;18686;53.084;8.872;2022-08-19T00:42:05;4.95;;;3.00;;
32186;SDS011;18686;53.084;8.872;2022-08-19T00:44:33;3.80;;;2.95;;
32186;SDS011;18686;53.084;8.872;2022-08-19T00:47:02;4.18;;;3.20;;
32186;SDS011;18686;53.084;8.872;2022-08-19T00:49:40;5.05;;;3.10;;
32186;SDS011;18686;53.084;8.872;2022-08-19T00:52:14;5.82;;;3.03;;
32186;SDS011;18686;53.084;8.872;2022-08-19T00:54:45;4.55;;;2.63;;
32186;SDS011;18686;53.084;8.872;2022-08-19T00:57:19;4.40;;;2.88;;
32186;SDS011;18686;53.084;8.872;2022-08-19T01:02:28;4.72;;;2.92;;
32186;SDS011;18686;53.084;8.872;2022-08-19T01:04:59;6.35;;;3.00;;
32186;SDS011;18686;53.084;8.872;2022-08-19T01:07:30;4.15;;;2.35;;
32186;SDS011;18686;53.084;8.872;2022-08-19T01:12:33;4.65;;;2.63;;
32186;SDS011;18686;53.084;8.872;2022-08-19T01:15:02;5.53;;;2.67;;
32186;SDS011;18686;53.084;8.872;2022-08-19T01:17:30;4.80;;;2.60;;
32186;SDS011;18686;53.084;8.872;2022-08-19T01:20:00;4.80;;;2.53;;
32186;SDS011;18686;53.084;8.872;2022-08-19T01:22:30;5.22;;;2.47;;
32186;SDS011;18686;53.084;8.872;2022-08-19T01:25:04;5.35;;;2.42;;
32186;SDS011;18686;53.084;8.872;2022-08-19T01:27:41;4.70;;;2.83;;
32186;SDS011;18686;53.084;8.872;2022-08-19T01:30:13;4.80;;;3.20;;
32186;SDS011;18686;53.084;8.872;2022-08-19T01:32:45;4.82;;;2.97;;
32186;SDS011;18686;53.084;8.872;2022-08-19T01:35:13;6.50;;;3.95;;
32186;SDS011;18686;53.084;8.872;2022-08-19T01:37:47;7.40;;;3.88;;
32186;SDS011;18686;53.084;8.872;2022-08-19T01:40:19;9.55;;;4.38;;
32186;SDS011;18686;53.084;8.872;2022-08-19T01:42:49;7.75;;;4.00;;
32186;SDS011;18686;53.084;8.872;2022-08-19T01:45:20;6.25;;;3.60;;
32186;SDS011;18686;53.084;8.872;2022-08-19T01:47:53;4.97;;;3.43;;
32186;SDS011;18686;53.084;8.872;2022-08-19T01:50:28;6.50;;;3.28;;
32186;SDS011;18686;53.084;8.872;2022-08-19T01:52:59;7.18;;;3.40;;
32186;SDS011;18686;53.084;8.872;2022-08-19T01:55:34;6.85;;;3.42;;
32186;SDS011;18686;53.084;8.872;2022-08-19T01:58:08;5.70;;;3.58;;
32186;SDS011;18686;53.084;8.872;2022-08-19T02:00:42;7.28;;;4.18;;
32186;SDS011;18686;53.084;8.872;2022-08-19T02:03:11;11.40;;;4.90;;
32186;SDS011;18686;53.084;8.872;2022-08-19T02:05:40;6.65;;;3.50;;
32186;SDS011;18686;53.084;8.872;2022-08-19T02:08:10;5.25;;;3.40;;
32186;SDS011;18686;53.084;8.872;2022-08-19T02:10:40;5.50;;;3.75;;
32186;SDS011;18686;53.084;8.872;2022-08-19T02:13:13;6.70;;;3.83;;
32186;SDS011;18686;53.084;8.872;2022-08-19T02:15:48;5.63;;;3.47;;
32186;SDS011;18686;53.084;8.872;2022-08-19T02:18:16;8.85;;;4.57;;
32186;SDS011;18686;53.084;8.872;2022-08-19T02:20:45;6.40;;;3.47;;
32186;SDS011;18686;53.084;8.872;2022-08-19T02:23:15;7.35;;;5.00;;
32186;SDS011;18686;53.084;8.872;2022-08-19T02:25:45;8.18;;;4.55;;
32186;SDS011;18686;53.084;8.872;2022-08-19T02:28:15;10.13;;;4.70;;
32186;SDS011;18686;53.084;8.872;2022-08-19T02:30:44;7.40;;;4.22;;
32186;SDS011;18686;53.084;8.872;2022-08-19T02:33:14;7.60;;;4.95;;
32186;SDS011;18686;53.084;8.872;2022-08-19T02:35:43;6.78;;;4.72;;
32186;SDS011;18686;53.084;8.872;2022-08-19T02:38:12;6.25;;;4.40;;
32186;SDS011;18686;53.084;8.872;2022-08-19T02:40:55;8.57;;;4.50;;
32186;SDS011;18686;53.084;8.872;2022-08-19T02:43:25;6.85;;;4.97;;
32186;SDS011;18686;53.084;8.872;2022-08-19T02:45:59;10.73;;;5.75;;
32186;SDS011;18686;53.084;8.872;2022-08-19T02:48:27;8.35;;;5.00;;
32186;SDS011;18686;53.084;8.872;2022-08-19T02:50:55;6.22;;;4.60;;
32186;SDS011;18686;53.084;8.872;2022-08-19T02:53:25;7.05;;;4.75;;
32186;SDS011;18686;53.084;8.872;2022-08-19T02:56:16;7.68;;;5.35;;
32186;SDS011;18686;53.084;8.872;2022-08-19T02:58:46;9.38;;;6.00;;
32186;SDS011;18686;53.084;8.872;2022-08-19T03:01:20;7.07;;;5.15;;
32186;SDS011;18686;53.084;8.872;2022-08-19T03:03:50;6.13;;;4.80;;
32186;SDS011;18686;53.084;8.872;2022-08-19T03:06:19;7.95;;;5.20;;
32186;SDS011;18686;53.084;8.872;2022-08-19T03:08:47;6.22;;;4.00;;
32186;SDS011;18686;53.084;8.872;2022-08-19T03:11:19;6.50;;;4.25;;
32186;SDS011;18686;53.084;8.872;2022-08-19T03:13:48;11.23;;;5.50;;
32186;SDS011;18686;53.084;8.872;2022-08-19T03:16:17;7.00;;;4.93;;
32186;SDS011;18686;53.084;8.872;2022-08-19T03:18:46;8.15;;;4.28;;
32186;SDS011;18686;53.084;8.872;2022-08-19T03:21:15;9.65;;;4.45;;
32186;SDS011;18686;53.084;8.872;2022-08-19T03:23:43;7.45;;;4.78;;
32186;SDS011;18686;53.084;8.872;2022-08-19T03:26:12;6.20;;;4.03;;
32186;SDS011;18686;53.084;8.872;2022-08-19T03:28:44;11.55;;;6.80;;
32186;SDS011;18686;53.084;8.872;2022-08-19T03:31:26;10.23;;;7.68;;
32186;SDS011;18686;53.084;8.872;2022-08-19T03:34:15;13.20;;;6.82;;
32186;SDS011;18686;53.084;8.872;2022-08-19T03:36:45;8.40;;;6.95;;
32186;SDS011;18686;53.084;8.872;2022-08-19T03:39:14;6.20;;;3.50;;
32186;SDS011;18686;53.084;8.872;2022-08-19T03:41:43;3.72;;;3.08;;
32186;SDS011;18686;53.084;8.872;2022-08-19T03:44:16;4.15;;;3.08;;
32186;SDS011;18686;53.084;8.872;2022-08-19T03:46:47;3.97;;;3.10;;
32186;SDS011;18686;53.084;8.872;2022-08-19T03:49:18;3.95;;;3.05;;
32186;SDS011;18686;53.084;8.872;2022-08-19T03:51:53;6.03;;;3.50;;
32186;SDS011;18686;53.084;8.872;2022-08-19T03:54:22;3.50;;;2.95;;
32186;SDS011;18686;53.084;8.872;2022-08-19T03:56:54;5.95;;;3.08;;
32186;SDS011;18686;53.084;8.872;2022-08-19T03:59:27;5.15;;;2.75;;
32186;SDS011;18686;53.084;8.872;2022-08-19T04:01:58;5.40;;;2.70;;
32186;SDS011;18686;53.084;8.872;2022-08-19T04:04:28;7.20;;;4.90;;
32186;SDS011;18686;53.084;8.872;2022-08-19T04:06:57;10.90;;;7.63;;
32186;SDS011;18686;53.084;8.872;2022-08-19T04:09:45;6.25;;;4.20;;
32186;SDS011;18686;53.084;8.872;2022-08-19T04:12:13;5.68;;;3.47;;
32186;SDS011;18686;53.084;8.872;2022-08-19T04:14:43;8.60;;;6.20;;
32186;SDS011;18686;53.084;8.872;2022-08-19T04:17:11;3.75;;;3.35;;
32186;SDS011;18686;53.084;8.872;2022-08-19T04:19:40;4.35;;;2.47;;
32186;SDS011;18686;53.084;8.872;2022-08-19T04:22:09;3.30;;;2.55;;
32186;SDS011;18686;53.084;8.872;2022-08-19T04:24:38;4.18;;;2.15;;
32186;SDS011;18686;53.084;8.872;2022-08-19T04:27:07;2.95;;;2.40;;
32186;SDS011;18686;53.084;8.872;2022-08-19T04:29:35;36.38;;;28.40;;
32186;SDS011;18686;53.084;8.872;2022-08-19T04:32:07;8.88;;;5.43;;
32186;SDS011;18686;53.084;8.872;2022-08-19T04:34:35;5.57;;;4.07;;
32186;SDS011;18686;53.084;8.872;2022-08-19T04:37:25;10.70;;;7.28;;
32186;SDS011;18686;53.084;8.872;2022-08-19T04:40:02;7.30;;;4.47;;
32186;SDS011;18686;53.084;8.872;2022-08-19T04:42:49;3.83;;;2.90;;
32186;SDS011;18686;53.084;8.872;2022-08-19T04:45:18;3.53;;;2.53;;
32186;SDS011;18686;53.084;8.872;2022-08-19T04:47:53;3.53;;;2.47;;
32186;SDS011;18686;53.084;8.872;2022-08-19T04:50:44;3.83;;;2.35;;
32186;SDS011;18686;53.084;8.872;2022-08-19T04:53:14;5.40;;;2.60;;
32186;SDS011;18686;53.084;8.872;2022-08-19T04:55:43;2.97;;;2.60;;
32186;SDS011;18686;53.084;8.872;2022-08-19T04:58:11;5.35;;;2.78;;
32186;SDS011;18686;53.084;8.872;2022-08-19T05:00:39;4.63;;;2.30;;
32186;SDS011;18686;53.084;8.872;2022-08-19T05:03:09;5.07;;;2.88;;
32186;SDS011;18686;53.084;8.872;2022-08-19T05:05:38;4.85;;;3.10;;
32186;SDS011;18686;53.084;8.872;2022-08-19T05:08:11;6.15;;;4.03;;
32186;SDS011;18686;53.084;8.872;2022-08-19T05:10:40;5.40;;;4.75;;
32186;SDS011;18686;53.084;8.872;2022-08-19T05:13:09;7.38;;;5.05;;
32186;SDS011;18686;53.084;8.872;2022-08-19T05:15:37;5.90;;;4.72;;
32186;SDS011;18686;53.084;8.872;2022-08-19T05:18:07;7.20;;;5.45;;
32186;SDS011;18686;53.084;8.872;2022-08-19T05:20:55;9.65;;;6.60;;
32186;SDS011;18686;53.084;8.872;2022-08-19T05:23:46;9.05;;;6.90;;
32186;SDS011;18686;53.084;8.872;2022-08-19T05:26:14;8.02;;;6.25;;
32186;SDS011;18686;53.084;8.872;2022-08-19T05:28:42;10.05;;;6.93;;
32186;SDS011;18686;53.084;8.872;2022-08-19T05:31:11;9.43;;;7.55;;
32186;SDS011;18686;53.084;8.872;2022-08-19T05:33:41;10.23;;;9.10;;
32186;SDS011;18686;53.084;8.872;2022-08-19T05:36:09;9.75;;;8.45;;
32186;SDS011;18686;53.084;8.872;2022-08-19T05:38:37;10.52;;;8.13;;
32186;SDS011;18686;53.084;8.872;2022-08-19T05:41:06;15.38;;;7.78;;
32186;SDS011;18686;53.084;8.872;2022-08-19T05:43:35;12.65;;;8.38;;
32186;SDS011;18686;53.084;8.872;2022-08-19T05:46:04;11.50;;;9.38;;
32186;SDS011;18686;53.084;8.872;2022-08-19T05:48:33;14.38;;;9.70;;
32186;SDS011;18686;53.084;8.872;2022-08-19T05:51:04;15.20;;;9.50;;
32186;SDS011;18686;53.084;8.872;2022-08-19T05:53:35;12.00;;;9.15;;
32186;SDS011;18686;53.084;8.872;2022-08-19T05:56:03;14.05;;;7.90;;
32186;SDS011;18686;53.084;8.872;2022-08-19T05:58:32;9.85;;;7.53;;
32186;SDS011;18686;53.084;8.872;2022-08-19T06:01:00;19.10;;;12.70;;
32186;SDS011;18686;53.084;8.872;2022-08-19T06:03:32;18.33;;;13.32;;
32186;SDS011;18686;53.084;8.872;2022-08-19T06:06:00;16.63;;;12.63;;
32186;SDS011;18686;53.084;8.872;2022-08-19T06:08:31;15.38;;;11.10;;
32186;SDS011;18686;53.084;8.872;2022-08-19T06:13:47;11.98;;;8.60;;
32186;SDS011;18686;53.084;8.872;2022-08-19T06:16:25;10.70;;;8.15;;
32186;SDS011;18686;53.084;8.872;2022-08-19T06:18:54;9.68;;;7.43;;
32186;SDS011;18686;53.084;8.872;2022-08-19T06:21:24;11.35;;;6.95;;
32186;SDS011;18686;53.084;8.872;2022-08-19T06:23:57;6.55;;;5.15;;
32186;SDS011;18686;53.084;8.872;2022-08-19T06:26:26;8.80;;;5.82;;
32186;SDS011;18686;53.084;8.872;2022-08-19T06:28:54;9.57;;;4.60;;
32186;SDS011;18686;53.084;8.872;2022-08-19T06:31:25;6.18;;;4.70;;
32186;SDS011;18686;53.084;8.872;2022-08-19T06:33:55;7.53;;;4.10;;
32186;SDS011;18686;53.084;8.872;2022-08-19T06:36:25;6.15;;;4.05;;
32186;SDS011;18686;53.084;8.872;2022-08-19T06:38:59;6.53;;;4.32;;
32186;SDS011;18686;53.084;8.872;2022-08-19T06:41:29;4.15;;;3.72;;
32186;SDS011;18686;53.084;8.872;2022-08-19T06:43:58;5.63;;;4.10;;
32186;SDS011;18686;53.084;8.872;2022-08-19T06:46:26;6.28;;;4.22;;
32186;SDS011;18686;53.084;8.872;2022-08-19T06:48:59;4.72;;;3.35;;
32186;SDS011;18686;53.084;8.872;2022-08-19T06:51:28;5.93;;;3.10;;
32186;SDS011;18686;53.084;8.872;2022-08-19T06:54:04;4.05;;;3.25;;
32186;SDS011;18686;53.084;8.872;2022-08-19T06:56:44;6.97;;;3.28;;
32186;SDS011;18686;53.084;8.872;2022-08-19T06:59:15;4.63;;;2.55;;
32186;SDS011;18686;53.084;8.872;2022-08-19T07:01:47;5.15;;;3.28;;
32186;SDS011;18686;53.084;8.872;2022-08-19T07:04:18;7.88;;;6.88;;
32186;SDS011;18686;53.084;8.872;2022-08-19T07:06:50;7.93;;;6.50;;
32186;SDS011;18686;53.084;8.872;2022-08-19T07:09:36;7.43;;;6.20;;
32186;SDS011;18686;53.084;8.872;2022-08-19T07:12:08;7.25;;;5.40;;
32186;SDS011;18686;53.084;8.872;2022-08-19T07:14:41;6.43;;;5.30;;
32186;SDS011;18686;53.084;8.872;2022-08-19T07:17:12;3.45;;;3.13;;
32186;SDS011;18686;53.084;8.872;2022-08-19T07:19:41;4.07;;;2.50;;
32186;SDS011;18686;53.084;8.872;2022-08-19T07:22:09;3.67;;;2.05;;
32186;SDS011;18686;53.084;8.872;2022-08-19T07:24:39;3.45;;;2.03;;
32186;SDS011;18686;53.084;8.872;2022-08-19T07:27:17;3.45;;;1.83;;
32186;SDS011;18686;53.084;8.872;2022-08-19T07:29:50;4.80;;;2.20;;
32186;SDS011;18686;53.084;8.872;2022-08-19T07:32:23;2.53;;;1.60;;
32186;SDS011;18686;53.084;8.872;2022-08-19T07:34:52;2.47;;;1.80;;
32186;SDS011;18686;53.084;8.872;2022-08-19T07:37:22;2.08;;;1.60;;
32186;SDS011;18686;53.084;8.872;2022-08-19T07:39:59;2.08;;;1.88;;
32186;SDS011;18686;53.084;8.872;2022-08-19T07:42:28;2.95;;;1.63;;
32186;SDS011;18686;53.084;8.872;2022-08-19T07:44:57;2.40;;;1.48;;
32186;SDS011;18686;53.084;8.872;2022-08-19T07:47:26;4.25;;;1.70;;
32186;SDS011;18686;53.084;8.872;2022-08-19T07:50:15;2.42;;;1.70;;
32186;SDS011;18686;53.084;8.872;2022-08-19T07:52:46;3.85;;;1.50;;
32186;SDS011;18686;53.084;8.872;2022-08-19T07:55:20;1.80;;;1.05;;
32186;SDS011;18686;53.084;8.872;2022-08-19T07:58:09;3.22;;;1.48;;
32186;SDS011;18686;53.084;8.872;2022-08-19T08:00:39;2.13;;;1.23;;
32186;SDS011;18686;53.084;8.872;2022-08-19T08:03:08;2.00;;;1.23;;
32186;SDS011;18686;53.084;8.872;2022-08-19T08:05:38;1.90;;;1.20;;
32186;SDS011;18686;53.084;8.872;2022-08-19T08:08:24;5.93;;;4.05;;
32186;SDS011;18686;53.084;8.872;2022-08-19T08:11:15;2.65;;;2.45;;
32186;SDS011;18686;53.084;8.872;2022-08-19T08:13:46;3.13;;;1.38;;
32186;SDS011;18686;53.084;8.872;2022-08-19T08:16:30;2.60;;;1.50;;
32186;SDS011;18686;53.084;8.872;2022-08-19T08:19:12;1.95;;;1.15;;
32186;SDS011;18686;53.084;8.872;2022-08-19T08:21:51;2.80;;;1.17;;
32186;SDS011;18686;53.084;8.872;2022-08-19T08:24:21;5.15;;;1.20;;
32186;SDS011;18686;53.084;8.872;2022-08-19T08:26:57;2.88;;;1.25;;
32186;SDS011;18686;53.084;8.872;2022-08-19T08:29:28;2.17;;;1.05;;
32186;SDS011;18686;53.084;8.872;2022-08-19T08:32:00;2.40;;;1.27;;
32186;SDS011;18686;53.084;8.872;2022-08-19T08:34:40;1.85;;;1.25;;
32186;SDS011;18686;53.084;8.872;2022-08-19T08:37:08;2.95;;;1.15;;
32186;SDS011;18686;53.084;8.872;2022-08-19T08:39:37;1.73;;;1.10;;
32186;SDS011;18686;53.084;8.872;2022-08-19T08:42:08;3.35;;;1.42;;
32186;SDS011;18686;53.084;8.872;2022-08-19T08:44:44;4.53;;;1.10;;
32186;SDS011;18686;53.084;8.872;2022-08-19T08:47:22;1.83;;;1.20;;
32186;SDS011;18686;53.084;8.872;2022-08-19T08:49:54;2.47;;;1.00;;
32186;SDS011;18686;53.084;8.872;2022-08-19T08:52:28;1.83;;;0.93;;
32186;SDS011;18686;53.084;8.872;2022-08-19T08:55:03;1.58;;;0.88;;
32186;SDS011;18686;53.084;8.872;2022-08-19T08:57:38;3.53;;;1.00;;
32186;SDS011;18686;53.084;8.872;2022-08-19T09:00:18;2.17;;;1.10;;
32186;SDS011;18686;53.084;8.872;2022-08-19T09:02:50;2.38;;;1.10;;
32186;SDS011;18686;53.084;8.872;2022-08-19T09:05:20;1.10;;;1.00;;
32186;SDS011;18686;53.084;8.872;2022-08-19T09:07:53;1.05;;;0.75;;
32186;SDS011;18686;53.084;8.872;2022-08-19T09:10:29;2.28;;;1.33;;
32186;SDS011;18686;53.084;8.872;2022-08-19T09:13:14;4.55;;;4.15;;
32186;SDS011;18686;53.084;8.872;2022-08-19T09:15:51;5.93;;;4.38;;
32186;SDS011;18686;53.084;8.872;2022-08-19T09:18:24;3.95;;;3.47;;
32186;SDS011;18686;53.084;8.872;2022-08-19T09:20:55;2.08;;;1.55;;
32186;SDS011;18686;53.084;8.872;2022-08-19T09:23:23;1.55;;;0.90;;
32186;SDS011;18686;53.084;8.872;2022-08-19T09:25:53;3.53;;;1.13;;
32186;SDS011;18686;53.084;8.872;2022-08-19T09:28:22;1.17;;;0.90;;
32186;SDS011;18686;53.084;8.872;2022-08-19T09:33:28;3.50;;;1.20;;
32186;SDS011;18686;53.084;8.872;2022-08-19T09:36:04;3.75;;;1.30;;
32186;SDS011;18686;53.084;8.872;2022-08-19T09:38:35;1.33;;;1.20;;
32186;SDS011;18686;53.084;8.872;2022-08-19T09:41:13;3.38;;;1.50;;
32186;SDS011;18686;53.084;8.872;2022-08-19T09:43:46;2.67;;;1.30;;
32186;SDS011;18686;53.084;8.872;2022-08-19T09:46:19;2.03;;;1.20;;
32186;SDS011;18686;53.084;8.872;2022-08-19T09:49:07;1.73;;;1.27;;
32186;SDS011;18686;53.084;8.872;2022-08-19T09:51:35;2.90;;;1.25;;
32186;SDS011;18686;53.084;8.872;2022-08-19T09:54:05;3.08;;;1.33;;
32186;SDS011;18686;53.084;8.872;2022-08-19T09:56:36;5.93;;;5.45;;
32186;SDS011;18686;53.084;8.872;2022-08-19T09:59:09;3.03;;;2.80;;
32186;SDS011;18686;53.084;8.872;2022-08-19T10:01:38;2.00;;;1.67;;
32186;SDS011;18686;53.084;8.872;2022-08-19T10:04:09;2.23;;;1.70;;
32186;SDS011;18686;53.084;8.872;2022-08-19T10:06:47;3.28;;;2.15;;
32186;SDS011;18686;53.084;8.872;2022-08-19T10:09:19;2.80;;;2.35;;
32186;SDS011;18686;53.084;8.872;2022-08-19T10:12:07;4.25;;;3.85;;
32186;SDS011;18686;53.084;8.872;2022-08-19T10:14:50;4.13;;;3.72;;
32186;SDS011;18686;53.084;8.872;2022-08-19T10:17:19;2.92;;;2.63;;
32186;SDS011;18686;53.084;8.872;2022-08-19T10:19:56;3.17;;;2.88;;
32186;SDS011;18686;53.084;8.872;2022-08-19T10:22:24;3.13;;;2.80;;
32186;SDS011;18686;53.084;8.872;2022-08-19T10:24:55;2.53;;;2.40;;
32186;SDS011;18686;53.084;8.872;2022-08-19T10:27:23;3.05;;;2.83;;
32186;SDS011;18686;53.084;8.872;2022-08-19T10:29:53;3.13;;;2.88;;
32186;SDS011;18686;53.084;8.872;2022-08-19T10:32:26;3.17;;;2.97;;
32186;SDS011;18686;53.084;8.872;2022-08-19T10:35:00;2.92;;;2.83;;
32186;SDS011;18686;53.084;8.872;2022-08-19T10:37:31;2.70;;;2.60;;
32186;SDS011;18686;53.084;8.872;2022-08-19T10:40:00;4.03;;;3.28;;
32186;SDS011;18686;53.084;8.872;2022-08-19T10:42:30;3.40;;;3.20;;
32186;SDS011;18686;53.084;8.872;2022-08-19T10:45:00;3.22;;;3.03;;
32186;SDS011;18686;53.084;8.872;2022-08-19T10:47:31;3.53;;;3.10;;
32186;SDS011;18686;53.084;8.872;2022-08-19T10:49:59;2.97;;;2.78;;
32186;SDS011;18686;53.084;8.872;2022-08-19T10:52:45;3.20;;;2.90;;
32186;SDS011;18686;53.084;8.872;2022-08-19T10:55:16;3.90;;;3.67;;
32186;SDS011;18686;53.084;8.872;2022-08-19T10:58:06;3.80;;;3.50;;
32186;SDS011;18686;53.084;8.872;2022-08-19T11:00:40;3.97;;;3.55;;
32186;SDS011;18686;53.084;8.872;2022-08-19T11:05:37;4.13;;;3.72;;
32186;SDS011;18686;53.084;8.872;2022-08-19T11:08:07;3.95;;;3.75;;
32186;SDS011;18686;53.084;8.872;2022-08-19T11:10:49;3.60;;;3.30;;
32186;SDS011;18686;53.084;8.872;2022-08-19T11:13:39;3.75;;;3.55;;
32186;SDS011;18686;53.084;8.872;2022-08-19T11:16:14;3.97;;;3.78;;
32186;SDS011;18686;53.084;8.872;2022-08-19T11:18:45;4.50;;;4.10;;
32186;SDS011;18686;53.084;8.872;2022-08-19T11:21:16;4.65;;;4.35;;
32186;SDS011;18686;53.084;8.872;2022-08-19T11:23:50;4.70;;;3.92;;
32186;SDS011;18686;53.084;8.872;2022-08-19T11:26:21;4.07;;;3.78;;
32186;SDS011;18686;53.084;8.872;2022-08-19T11:28:51;3.70;;;3.50;;
32186;SDS011;18686;53.084;8.872;2022-08-19T11:31:24;4.18;;;3.55;;
32186;SDS011;18686;53.084;8.872;2022-08-19T11:33:57;4.00;;;3.70;;
32186;SDS011;18686;53.084;8.872;2022-08-19T11:38:57;2.72;;;2.53;;
32186;SDS011;18686;53.084;8.872;2022-08-19T11:43:56;4.38;;;3.50;;
32186;SDS011;18686;53.084;8.872;2022-08-19T11:46:26;2.85;;;2.63;;
32186;SDS011;18686;53.084;8.872;2022-08-19T11:48:57;3.58;;;2.50;;
32186;SDS011;18686;53.084;8.872;2022-08-19T11:51:27;2.25;;;2.15;;
32186;SDS011;18686;53.084;8.872;2022-08-19T11:53:56;2.40;;;2.08;;
32186;SDS011;18686;53.084;8.872;2022-08-19T11:56:26;1.60;;;1.50;;
32186;SDS011;18686;53.084;8.872;2022-08-19T11:58:55;2.53;;;2.40;;
32186;SDS011;18686;53.084;8.872;2022-08-19T12:01:24;1.70;;;1.60;;
32186;SDS011;18686;53.084;8.872;2022-08-19T12:03:55;4.90;;;4.33;;
32186;SDS011;18686;53.084;8.872;2022-08-19T12:06:25;2.88;;;1.60;;
32186;SDS011;18686;53.084;8.872;2022-08-19T12:09:15;1.63;;;1.52;;
32186;SDS011;18686;53.084;8.872;2022-08-19T12:11:44;2.28;;;1.40;;
32186;SDS011;18686;53.084;8.872;2022-08-19T12:14:12;1.10;;;1.10;;
32186;SDS011;18686;53.084;8.872;2022-08-19T12:16:45;4.63;;;1.35;;
32186;SDS011;18686;53.084;8.872;2022-08-19T12:19:18;2.25;;;1.20;;
32186;SDS011;18686;53.084;8.872;2022-08-19T12:21:48;1.70;;;1.17;;
32186;SDS011;18686;53.084;8.872;2022-08-19T12:24:17;3.10;;;1.25;;
32186;SDS011;18686;53.084;8.872;2022-08-19T12:26:49;2.47;;;1.10;;
32186;SDS011;18686;53.084;8.872;2022-08-19T12:29:19;1.17;;;1.13;;
32186;SDS011;18686;53.084;8.872;2022-08-19T12:31:50;0.90;;;0.90;;
32186;SDS011;18686;53.084;8.872;2022-08-19T12:34:19;1.10;;;1.00;;
32186;SDS011;18686;53.084;8.872;2022-08-19T12:36:47;1.48;;;1.38;;
32186;SDS011;18686;53.084;8.872;2022-08-19T12:39:16;1.40;;;1.30;;
32186;SDS011;18686;53.084;8.872;2022-08-19T12:41:45;2.33;;;1.60;;
32186;SDS011;18686;53.084;8.872;2022-08-19T12:44:20;1.67;;;0.80;;
32186;SDS011;18686;53.084;8.872;2022-08-19T12:46:56;0.50;;;0.50;;
32186;SDS011;18686;53.084;8.872;2022-08-19T12:49:27;0.90;;;0.60;;
32186;SDS011;18686;53.084;8.872;2022-08-19T12:52:16;0.50;;;0.50;;
32186;SDS011;18686;53.084;8.872;2022-08-19T12:54:49;1.83;;;0.60;;
32186;SDS011;18686;53.084;8.872;2022-08-19T12:57:20;1.23;;;0.32;;
32186;SDS011;18686;53.084;8.872;2022-08-19T12:59:57;1.05;;;0.50;;
32186;SDS011;18686;53.084;8.872;2022-08-19T13:02:31;1.42;;;0.45;;
32186;SDS011;18686;53.084;8.872;2022-08-19T13:05:05;0.65;;;0.30;;
32186;SDS011;18686;53.084;8.872;2022-08-19T13:07:36;1.42;;;0.60;;
32186;SDS011;18686;53.084;8.872;2022-08-19T13:10:05;1.80;;;1.30;;
32186;SDS011;18686;53.084;8.872;2022-08-19T13:12:35;0.80;;;0.60;;
32186;SDS011;18686;53.084;8.872;2022-08-19T13:15:04;2.83;;;0.60;;
32186;SDS011;18686;53.084;8.872;2022-08-19T13:17:38;0.50;;;0.50;;
32186;SDS011;18686;53.084;8.872;2022-08-19T13:20:08;2.88;;;0.50;;
32186;SDS011;18686;53.084;8.872;2022-08-19T13:22:37;0.45;;;0.40;;
32186;SDS011;18686;53.084;8.872;2022-08-19T13:25:07;0.85;;;0.40;;
32186;SDS011;18686;53.084;8.872;2022-08-19T13:27:36;0.88;;;0.50;;
32186;SDS011;18686;53.084;8.872;2022-08-19T13:30:07;0.77;;;0.45;;
32186;SDS011;18686;53.084;8.872;2022-08-19T13:32:56;0.60;;;0.45;;
32186;SDS011;18686;53.084;8.872;2022-08-19T13:35:42;1.52;;;0.88;;
32186;SDS011;18686;53.084;8.872;2022-08-19T13:38:13;2.88;;;1.00;;
32186;SDS011;18686;53.084;8.872;2022-08-19T13:40:42;1.88;;;1.77;;
32186;SDS011;18686;53.084;8.872;2022-08-19T13:43:11;0.88;;;0.82;;
32186;SDS011;18686;53.084;8.872;2022-08-19T13:45:49;0.98;;;0.60;;
32186;SDS011;18686;53.084;8.872;2022-08-19T13:48:21;1.13;;;0.70;;
32186;SDS011;18686;53.084;8.872;2022-08-19T13:50:51;0.90;;;0.70;;
32186;SDS011;18686;53.084;8.872;2022-08-19T13:53:20;0.82;;;0.70;;
32186;SDS011;18686;53.084;8.872;2022-08-19T13:55:48;6.53;;;0.75;;
32186;SDS011;18686;53.084;8.872;2022-08-19T13:58:17;0.63;;;0.30;;
32186;SDS011;18686;53.084;8.872;2022-08-19T14:00:46;0.57;;;0.50;;
32186;SDS011;18686;53.084;8.872;2022-08-19T14:03:14;5.45;;;0.68;;
32186;SDS011;18686;53.084;8.872;2022-08-19T14:05:44;0.80;;;0.80;;
32186;SDS011;18686;53.084;8.872;2022-08-19T14:08:13;0.88;;;0.52;;
32186;SDS011;18686;53.084;8.872;2022-08-19T14:10:41;0.88;;;0.50;;
32186;SDS011;18686;53.084;8.872;2022-08-19T14:13:13;4.60;;;4.05;;
32186;SDS011;18686;53.084;8.872;2022-08-19T14:15:43;0.83;;;0.83;;
32186;SDS011;18686;53.084;8.872;2022-08-19T14:18:14;0.80;;;0.60;;
32186;SDS011;18686;53.084;8.872;2022-08-19T14:20:43;2.10;;;0.65;;
32186;SDS011;18686;53.084;8.872;2022-08-19T14:23:13;1.20;;;0.80;;
32186;SDS011;18686;53.084;8.872;2022-08-19T14:25:41;2.53;;;0.93;;
32186;SDS011;18686;53.084;8.872;2022-08-19T14:28:10;3.45;;;2.65;;
32186;SDS011;18686;53.084;8.872;2022-08-19T14:30:38;5.53;;;3.42;;
32186;SDS011;18686;53.084;8.872;2022-08-19T14:33:07;4.57;;;3.03;;
32186;SDS011;18686;53.084;8.872;2022-08-19T14:35:36;3.08;;;2.20;;
32186;SDS011;18686;53.084;8.872;2022-08-19T14:38:06;4.03;;;2.63;;
32186;SDS011;18686;53.084;8.872;2022-08-19T14:40:42;2.92;;;2.10;;
32186;SDS011;18686;53.084;8.872;2022-08-19T14:43:12;1.70;;;1.60;;
32186;SDS011;18686;53.084;8.872;2022-08-19T14:45:43;2.85;;;2.13;;
32186;SDS011;18686;53.084;8.872;2022-08-19T14:48:12;5.03;;;4.13;;
32186;SDS011;18686;53.084;8.872;2022-08-19T14:50:45;1.27;;;1.17;;
32186;SDS011;18686;53.084;8.872;2022-08-19T14:53:16;1.05;;;0.88;;
32186;SDS011;18686;53.084;8.872;2022-08-19T14:55:45;2.25;;;0.90;;
32186;SDS011;18686;53.084;8.872;2022-08-19T14:58:13;1.85;;;0.60;;
32186;SDS011;18686;53.084;8.872;2022-08-19T15:00:56;0.80;;;0.80;;
32186;SDS011;18686;53.084;8.872;2022-08-19T15:03:26;1.10;;;0.80;;
32186;SDS011;18686;53.084;8.872;2022-08-19T15:05:54;0.70;;;0.70;;
32186;SDS011;18686;53.084;8.872;2022-08-19T15:08:26;2.13;;;1.25;;
32186;SDS011;18686;53.084;8.872;2022-08-19T15:10:56;1.48;;;0.88;;
32186;SDS011;18686;53.084;8.872;2022-08-19T15:13:26;0.85;;;0.70;;
32186;SDS011;18686;53.084;8.872;2022-08-19T15:15:55;0.70;;;0.70;;
32186;SDS011;18686;53.084;8.872;2022-08-19T15:18:24;1.33;;;0.80;;
32186;SDS011;18686;53.084;8.872;2022-08-19T15:20:53;0.60;;;0.60;;
32186;SDS011;18686;53.084;8.872;2022-08-19T15:23:21;3.08;;;0.85;;
32186;SDS011;18686;53.084;8.872;2022-08-19T15:25:51;0.90;;;0.77;;
32186;SDS011;18686;53.084;8.872;2022-08-19T15:28:22;0.82;;;0.68;;
32186;SDS011;18686;53.084;8.872;2022-08-19T15:30:51;0.77;;;0.63;;
32186;SDS011;18686;53.084;8.872;2022-08-19T15:33:20;1.13;;;0.80;;